Time;durP1;ratioP1;P1;durP2;ratioP2;P2;SDS_P1;SDS_P2;PMS_P1;PMS_P2;Temp;Humidity;BMP_temperature;BMP_pressure;BME280_temperature;BME280_humidity;BME280_pressure;Samples;Min_cycle;Max_cycle;Signal;HPM_P1;HPM_P2
2023/05/09 00:00:09;;;;;;;16.67;13.20;;;;;;;;;;5053456;28;20167;-65
2023/05/09 00:02:36;;;;;;;14.23;12.83;;;;;;;;;;5053532;28;20166;-66
2023/05/09 00:05:02;;;;;;;14.40;12.90;;;;;;;;;;5053492;28;20632;-65
2023/05/09 00:07:29;;;;;;;14.53;13.17;;;;;;;;;;5053604;28;20202;-65
2023/05/09 00:09:56;;;;;;;14.33;12.80;;;;;;;;;;5035728;28;20183;-65
2023/05/09 00:12:22;;;;;;;15.57;13.97;;;;;;;;;;5053495;28;20530;-64
2023/05/09 00:14:50;;;;;;;14.37;13.00;;;;;;;;;;5035535;28;20178;-65
2023/05/09 00:17:17;;;;;;;15.13;13.73;;;;;;;;;;5035240;28;20214;-65
2023/05/09 00:19:43;;;;;;;14.93;13.43;;;;;;;;;;5035256;28;20225;-64
2023/05/09 00:22:11;;;;;;;14.87;13.53;;;;;;;;;;5053477;28;20178;-65
2023/05/09 00:24:37;;;;;;;15.20;13.80;;;;;;;;;;5053431;28;20181;-65
2023/05/09 00:27:03;;;;;;;17.97;13.80;;;;;;;;;;5053195;28;20217;-66
2023/05/09 00:29:29;;;;;;;15.37;13.93;;;;;;;;;;5035226;28;20516;-65
2023/05/09 00:31:55;;;;;;;14.60;13.17;;;;;;;;;;5053033;28;20186;-66
2023/05/09 00:34:21;;;;;;;15.60;14.10;;;;;;;;;;5052982;28;20187;-66
2023/05/09 00:36:48;;;;;;;16.60;14.47;;;;;;;;;;5052778;28;20231;-66
2023/05/09 00:39:14;;;;;;;15.20;13.60;;;;;;;;;;5052968;28;20582;-66
2023/05/09 00:41:40;;;;;;;16.47;13.83;;;;;;;;;;5053021;28;20205;-66
2023/05/09 00:44:06;;;;;;;16.70;15.00;;;;;;;;;;5035026;28;20217;-66
2023/05/09 00:46:32;;;;;;;18.23;15.53;;;;;;;;;;5052856;28;20201;-65
2023/05/09 00:48:58;;;;;;;19.07;16.57;;;;;;;;;;5034959;28;20186;-65
2023/05/09 00:51:24;;;;;;;17.17;15.47;;;;;;;;;;5053084;28;20178;-65
2023/05/09 00:53:50;;;;;;;16.60;15.00;;;;;;;;;;5053405;28;20201;-66
2023/05/09 00:56:16;;;;;;;16.53;15.03;;;;;;;;;;5052978;28;20175;-66
2023/05/09 00:58:42;;;;;;;16.67;15.07;;;;;;;;;;5034784;28;20583;-66
2023/05/09 01:01:08;;;;;;;17.37;15.07;;;;;;;;;;5053277;28;20257;-66
2023/05/09 01:03:35;;;;;;;16.83;15.27;;;;;;;;;;5052668;28;20662;-66
2023/05/09 01:06:14;;;;;;;17.20;15.57;;;;;;;;;;5052622;28;20190;-67
2023/05/09 01:08:46;;;;;;;17.57;15.93;;;;;;;;;;5052970;28;20167;-66
2023/05/09 01:11:16;;;;;;;15.90;14.30;;;;;;;;;;5034772;28;20223;-66
2023/05/09 01:14:01;;;;;;;16.57;14.90;;;;;;;;;;5052642;28;20240;-66
2023/05/09 01:16:50;;;;;;;17.13;15.43;;;;;;;;;;5052537;28;20206;-66
2023/05/09 01:19:32;;;;;;;17.67;15.80;;;;;;;;;;5022148;28;20225;-66
2023/05/09 01:21:58;;;;;;;17.83;15.57;;;;;;;;;;5034644;28;20193;-66
2023/05/09 01:24:39;;;;;;;18.33;15.83;;;;;;;;;;5052550;28;20305;-65
2023/05/09 01:27:22;;;;;;;18.53;15.50;;;;;;;;;;5034594;28;20283;-66
2023/05/09 01:29:49;;;;;;;17.47;15.80;;;;;;;;;;5052660;28;20202;-66
2023/05/09 01:32:19;;;;;;;17.90;15.97;;;;;;;;;;5034517;28;20182;-66
2023/05/09 01:34:45;;;;;;;18.03;16.20;;;;;;;;;;5053304;28;20589;-65
2023/05/09 01:37:14;;;;;;;18.67;16.77;;;;;;;;;;5052292;28;20198;-66
2023/05/09 01:39:41;;;;;;;18.50;16.60;;;;;;;;;;5052361;28;20174;-65
2023/05/09 01:42:09;;;;;;;18.60;16.83;;;;;;;;;;5034558;28;20186;-66
2023/05/09 01:44:36;;;;;;;18.23;16.40;;;;;;;;;;5052327;28;20261;-65
2023/05/09 01:47:05;;;;;;;18.60;16.70;;;;;;;;;;5052773;28;20256;-66
2023/05/09 01:49:32;;;;;;;20.07;17.37;;;;;;;;;;5056225;28;20588;-66
2023/05/09 01:51:59;;;;;;;20.90;17.77;;;;;;;;;;5055907;28;20185;-65
2023/05/09 01:54:26;;;;;;;21.87;19.23;;;;;;;;;;5038017;28;20182;-65
2023/05/09 01:56:54;;;;;;;19.20;17.30;;;;;;;;;;5038083;28;20566;-66
2023/05/09 01:59:20;;;;;;;20.20;18.10;;;;;;;;;;5055802;28;20204;-66
2023/05/09 02:01:47;;;;;;;19.40;17.50;;;;;;;;;;5038051;28;20174;-65
2023/05/09 02:04:15;;;;;;;23.63;17.03;;;;;;;;;;5037877;28;20186;-66
2023/05/09 02:06:43;;;;;;;19.40;17.40;;;;;;;;;;5037748;28;20289;-65
2023/05/09 02:09:09;;;;;;;20.63;18.07;;;;;;;;;;5055624;28;20179;-65
2023/05/09 02:11:35;;;;;;;23.43;19.07;;;;;;;;;;5037763;28;20300;-65
2023/05/09 02:14:01;;;;;;;23.17;19.10;;;;;;;;;;5055567;28;20704;-65
2023/05/09 02:16:27;;;;;;;24.17;18.93;;;;;;;;;;5037580;28;20202;-65
2023/05/09 02:18:53;;;;;;;23.73;19.37;;;;;;;;;;5037442;28;20225;-66
2023/05/09 02:21:19;;;;;;;23.00;20.03;;;;;;;;;;5056068;28;20163;-66
2023/05/09 02:23:45;;;;;;;21.33;19.20;;;;;;;;;;5037598;28;20184;-66
2023/05/09 02:26:11;;;;;;;22.03;19.23;;;;;;;;;;5055290;28;20177;-66
2023/05/09 02:28:38;;;;;;;22.00;19.83;;;;;;;;;;5055357;28;20304;-66
2023/05/09 02:31:08;;;;;;;23.47;21.07;;;;;;;;;;5055327;28;20185;-66
2023/05/09 02:33:36;;;;;;;24.67;20.47;;;;;;;;;;5037610;28;20194;-66
2023/05/09 02:36:02;;;;;;;25.13;20.97;;;;;;;;;;5037452;28;20178;-67
2023/05/09 02:38:28;;;;;;;23.50;21.07;;;;;;;;;;5055268;28;20210;-66
2023/05/09 02:40:54;;;;;;;24.47;21.93;;;;;;;;;;5037405;28;20529;-66
2023/05/09 02:43:20;;;;;;;27.10;22.30;;;;;;;;;;5037297;28;20265;-66
2023/05/09 02:45:46;;;;;;;25.17;22.50;;;;;;;;;;5037309;28;20671;-66
2023/05/09 02:48:12;;;;;;;25.80;23.10;;;;;;;;;;5037134;28;20746;-66
2023/05/09 02:50:40;;;;;;;24.87;22.27;;;;;;;;;;5055077;28;20663;-66
2023/05/09 02:53:06;;;;;;;25.50;22.57;;;;;;;;;;5055302;28;20248;-65
2023/05/09 02:55:32;;;;;;;25.73;23.13;;;;;;;;;;5055211;28;20640;-64
2023/05/09 02:57:58;;;;;;;25.00;22.10;;;;;;;;;;5054467;28;20206;-65
2023/05/09 03:00:24;;;;;;;24.50;22.00;;;;;;;;;;5055071;28;20171;-65
2023/05/09 03:02:51;;;;;;;23.97;21.67;;;;;;;;;;5054989;28;20640;-65
2023/05/09 03:05:17;;;;;;;25.10;22.17;;;;;;;;;;5054672;28;20715;-65
2023/05/09 03:07:43;;;;;;;25.37;22.67;;;;;;;;;;5036458;28;20206;-65
2023/05/09 03:10:13;;;;;;;24.80;22.30;;;;;;;;;;5036633;28;20277;-65
2023/05/09 03:12:39;;;;;;;23.73;21.30;;;;;;;;;;5054399;28;20537;-66
2023/05/09 03:15:06;;;;;;;24.00;21.17;;;;;;;;;;5054928;28;20175;-65
2023/05/09 03:17:32;;;;;;;23.67;21.40;;;;;;;;;;5054695;28;20293;-66
2023/05/09 03:19:58;;;;;;;24.97;22.03;;;;;;;;;;5054247;28;20191;-65
2023/05/09 03:22:24;;;;;;;30.90;26.90;;;;;;;;;;5036309;28;20178;-66
2023/05/09 03:24:50;;;;;;;26.67;23.83;;;;;;;;;;5054178;28;20253;-65
2023/05/09 03:27:16;;;;;;;34.03;28.13;;;;;;;;;;5054042;28;20292;-66
2023/05/09 03:29:42;;;;;;;35.93;28.00;;;;;;;;;;5036250;28;20645;-68
2023/05/09 03:32:08;;;;;;;35.83;29.27;;;;;;;;;;5054086;28;20178;-67
2023/05/09 03:34:34;;;;;;;41.23;32.23;;;;;;;;;;5054239;28;20179;-66
2023/05/09 03:37:00;;;;;;;56.70;38.77;;;;;;;;;;5053878;28;20198;-67
2023/05/09 03:39:26;;;;;;;60.07;41.03;;;;;;;;;;5053876;28;20210;-66
2023/05/09 03:41:52;;;;;;;57.97;43.30;;;;;;;;;;5036016;28;20261;-67
2023/05/09 03:44:18;;;;;;;62.63;44.83;;;;;;;;;;5053847;28;20201;-68
2023/05/09 03:46:44;;;;;;;66.90;47.47;;;;;;;;;;5053923;28;20613;-66
2023/05/09 03:49:10;;;;;;;73.40;47.10;;;;;;;;;;5035797;28;20182;-66
2023/05/09 03:51:36;;;;;;;70.07;47.73;;;;;;;;;;5054265;28;20178;-67
2023/05/09 03:54:02;;;;;;;73.97;49.97;;;;;;;;;;5035751;28;20205;-67
2023/05/09 03:56:28;;;;;;;74.47;47.93;;;;;;;;;;5035646;28;20205;-67
2023/05/09 03:58:54;;;;;;;71.40;48.80;;;;;;;;;;5053508;28;20217;-67
2023/05/09 04:01:20;;;;;;;71.60;46.97;;;;;;;;;;5036635;28;20182;-67
2023/05/09 04:03:46;;;;;;;69.23;46.90;;;;;;;;;;5053575;28;20174;-66
2023/05/09 04:06:12;;;;;;;74.03;48.93;;;;;;;;;;5053428;28;20177;-67
2023/05/09 04:08:38;;;;;;;74.43;50.50;;;;;;;;;;5053781;28;20257;-66
2023/05/09 04:11:04;;;;;;;75.93;50.73;;;;;;;;;;5053237;28;20221;-67
2023/05/09 04:13:31;;;;;;;78.60;50.07;;;;;;;;;;5035496;28;20206;-67
2023/05/09 04:15:57;;;;;;;75.90;49.80;;;;;;;;;;5035542;28;20186;-67
2023/05/09 04:18:23;;;;;;;78.07;52.50;;;;;;;;;;5053191;28;20702;-67
2023/05/09 04:20:49;;;;;;;83.80;53.07;;;;;;;;;;5035534;28;20289;-67
2023/05/09 04:23:15;;;;;;;78.93;51.50;;;;;;;;;;5053260;28;20189;-66
2023/05/09 04:25:41;;;;;;;83.67;53.60;;;;;;;;;;5053309;28;20643;-66
2023/05/09 04:28:07;;;;;;;81.10;53.30;;;;;;;;;;5053061;28;20206;-66
2023/05/09 04:30:33;;;;;;;78.17;53.27;;;;;;;;;;5053666;28;20603;-66
2023/05/09 04:32:59;;;;;;;76.03;51.77;;;;;;;;;;5035384;28;20569;-66
2023/05/09 04:35:25;;;;;;;74.33;52.10;;;;;;;;;;5053122;28;20638;-66
2023/05/09 04:37:51;;;;;;;80.73;52.67;;;;;;;;;;5052974;28;20336;-66
2023/05/09 04:40:17;;;;;;;75.80;51.00;;;;;;;;;;5053546;28;20629;-66
2023/05/09 04:42:43;;;;;;;74.90;51.03;;;;;;;;;;5053107;28;20180;-66
2023/05/09 04:45:10;;;;;;;75.50;53.07;;;;;;;;;;5035011;28;20261;-66
2023/05/09 04:47:36;;;;;;;76.90;53.70;;;;;;;;;;5052825;28;20195;-66
2023/05/09 04:50:02;;;;;;;80.20;52.73;;;;;;;;;;5053697;28;20640;-66
2023/05/09 04:52:28;;;;;;;80.33;51.83;;;;;;;;;;5052838;28;20266;-66
2023/05/09 04:54:54;;;;;;;76.63;51.63;;;;;;;;;;5052841;28;20265;-66
2023/05/09 04:57:21;;;;;;;79.77;53.40;;;;;;;;;;5052771;28;20742;-66
2023/05/09 04:59:47;;;;;;;77.97;51.57;;;;;;;;;;5052721;28;20193;-66
2023/05/09 05:02:13;;;;;;;85.10;54.80;;;;;;;;;;5053304;28;20576;-66
2023/05/09 05:04:39;;;;;;;77.97;52.90;;;;;;;;;;5053205;28;20181;-66
2023/05/09 05:07:05;;;;;;;81.03;50.80;;;;;;;;;;5052835;28;20278;-65
2023/05/09 05:09:30;;;;;;;75.43;51.40;;;;;;;;;;5053208;28;20632;-66
2023/05/09 05:11:56;;;;;;;70.43;50.63;;;;;;;;;;5052806;28;20206;-66
2023/05/09 05:14:22;;;;;;;76.23;51.73;;;;;;;;;;5035056;28;20185;-66
2023/05/09 05:16:48;;;;;;;73.77;48.07;;;;;;;;;;5052752;28;20245;-66
2023/05/09 05:19:14;;;;;;;68.53;48.30;;;;;;;;;;5052390;28;20221;-66
2023/05/09 05:21:40;;;;;;;66.63;45.20;;;;;;;;;;5052702;28;20171;-66
2023/05/09 05:24:06;;;;;;;60.93;42.63;;;;;;;;;;5056813;28;20190;-66
2023/05/09 05:26:32;;;;;;;61.47;41.97;;;;;;;;;;5038625;28;20198;-65
2023/05/09 05:28:59;;;;;;;59.73;43.20;;;;;;;;;;5056795;28;20210;-66
2023/05/09 05:31:25;;;;;;;59.27;41.47;;;;;;;;;;5038789;28;20178;-65
2023/05/09 05:33:51;;;;;;;56.07;38.97;;;;;;;;;;5056497;28;20185;-65
2023/05/09 05:36:17;;;;;;;53.30;40.70;;;;;;;;;;5056485;28;20183;-66
2023/05/09 05:38:43;;;;;;;57.23;40.13;;;;;;;;;;5056189;28;20414;-66
2023/05/09 05:41:10;;;;;;;53.13;38.90;;;;;;;;;;5056358;28;20675;-66
2023/05/09 05:43:36;;;;;;;56.60;38.43;;;;;;;;;;5038785;28;20182;-66
2023/05/09 05:46:02;;;;;;;51.60;38.77;;;;;;;;;;5055991;28;20171;-66
2023/05/09 05:48:28;;;;;;;56.80;39.23;;;;;;;;;;5056012;28;20243;-65
2023/05/09 05:50:54;;;;;;;54.83;39.37;;;;;;;;;;5056260;28;20270;-66
2023/05/09 05:53:20;;;;;;;52.70;39.10;;;;;;;;;;5055900;28;20228;-65
2023/05/09 05:55:46;;;;;;;53.00;37.77;;;;;;;;;;5055995;28;20181;-65
2023/05/09 05:58:12;;;;;;;54.73;38.80;;;;;;;;;;5055686;28;20210;-65
2023/05/09 06:00:38;;;;;;;55.13;38.23;;;;;;;;;;5055972;28;20223;-65
2023/05/09 06:03:03;;;;;;;52.70;37.45;;;;;;;;;;5055710;28;20261;-66
2023/05/09 06:05:29;;;;;;;50.83;39.53;;;;;;;;;;5037839;28;20185;-66
2023/05/09 06:07:55;;;;;;;52.47;38.63;;;;;;;;;;5055620;28;20203;-66
2023/05/09 06:10:21;;;;;;;53.60;37.30;;;;;;;;;;5056167;28;20628;-66
2023/05/09 06:12:47;;;;;;;47.97;36.47;;;;;;;;;;5037563;28;20265;-66
2023/05/09 06:15:13;;;;;;;52.00;35.67;;;;;;;;;;5056061;28;20643;-65
2023/05/09 06:17:39;;;;;;;51.03;36.67;;;;;;;;;;5037411;28;20647;-66
2023/05/09 06:20:06;;;;;;;52.93;36.97;;;;;;;;;;5055370;28;20190;-66
2023/05/09 06:22:31;;;;;;;57.37;38.53;;;;;;;;;;5055716;28;20174;-66
2023/05/09 06:24:57;;;;;;;57.57;39.20;;;;;;;;;;5037842;28;20557;-67
2023/05/09 06:27:23;;;;;;;62.30;40.90;;;;;;;;;;5037509;28;20202;-66
2023/05/09 06:29:51;;;;;;;62.17;42.10;;;;;;;;;;5055397;28;20174;-67
2023/05/09 06:32:18;;;;;;;68.73;42.60;;;;;;;;;;5037488;28;20644;-67
2023/05/09 06:34:44;;;;;;;63.40;40.17;;;;;;;;;;5036892;28;20188;-66
2023/05/09 06:37:10;;;;;;;68.80;41.50;;;;;;;;;;5037096;28;20226;-66
2023/05/09 06:39:36;;;;;;;71.33;40.70;;;;;;;;;;5037208;28;20272;-66
2023/05/09 06:42:02;;;;;;;68.77;44.00;;;;;;;;;;5055029;28;20201;-66
2023/05/09 06:44:28;;;;;;;74.77;44.30;;;;;;;;;;5055050;28;20179;-66
2023/05/09 06:46:54;;;;;;;73.07;44.90;;;;;;;;;;5037022;28;20206;-66
2023/05/09 06:49:20;;;;;;;82.70;45.93;;;;;;;;;;5054853;28;20201;-66
2023/05/09 06:51:46;;;;;;;75.43;45.60;;;;;;;;;;5037145;28;20640;-67
2023/05/09 06:54:12;;;;;;;75.13;45.07;;;;;;;;;;5037317;28;20236;-66
2023/05/09 06:56:38;;;;;;;76.83;43.53;;;;;;;;;;5055042;28;20606;-67
2023/05/09 06:59:04;;;;;;;73.23;43.20;;;;;;;;;;5054657;28;20198;-66
2023/05/09 07:01:30;;;;;;;64.40;41.47;;;;;;;;;;5054680;28;20174;-66
2023/05/09 07:03:58;;;;;;;55.27;37.93;;;;;;;;;;5055182;28;20179;-66
2023/05/09 07:06:23;;;;;;;48.70;36.03;;;;;;;;;;5054481;28;20242;-67
2023/05/09 07:08:49;;;;;;;45.03;34.33;;;;;;;;;;5054424;28;20183;-66
2023/05/09 07:11:15;;;;;;;44.53;33.93;;;;;;;;;;5077663;22;20234;-65
2023/05/09 07:13:41;;;;;;;48.17;32.13;;;;;;;;;;5055202;28;20174;-65
2023/05/09 07:16:07;;;;;;;43.13;30.47;;;;;;;;;;5036822;28;20179;-65
2023/05/09 07:18:33;;;;;;;34.97;29.70;;;;;;;;;;5037025;28;20741;-64
2023/05/09 07:20:59;;;;;;;34.80;29.13;;;;;;;;;;5036728;28;20199;-65
2023/05/09 07:23:25;;;;;;;33.80;29.80;;;;;;;;;;5037503;28;20186;-65
2023/05/09 07:25:56;;;;;;;39.43;30.10;;;;;;;;;;5036792;28;20178;-65
2023/05/09 07:28:22;;;;;;;32.50;28.93;;;;;;;;;;5054828;28;20185;-64
2023/05/09 07:30:48;;;;;;;34.03;29.13;;;;;;;;;;5054461;28;20679;-65
2023/05/09 07:33:14;;;;;;;31.63;28.03;;;;;;;;;;5036899;28;20703;-65
2023/05/09 07:35:40;;;;;;;35.67;28.20;;;;;;;;;;5055468;28;20179;-64
2023/05/09 07:38:05;;;;;;;31.60;26.90;;;;;;;;;;5055222;28;20203;-64
2023/05/09 07:40:36;;;;;;;25.33;22.60;;;;;;;;;;5054721;28;20220;-65
2023/05/09 07:43:02;;;;;;;27.30;24.40;;;;;;;;;;5059222;28;20191;-64
2023/05/09 07:45:28;;;;;;;27.87;23.03;;;;;;;;;;5053476;28;20257;-64
2023/05/09 07:47:54;;;;;;;23.83;21.33;;;;;;;;;;5055422;28;20179;-65
2023/05/09 07:50:22;;;;;;;24.27;21.97;;;;;;;;;;5054451;28;20258;-64
2023/05/09 07:52:48;;;;;;;28.07;22.60;;;;;;;;;;5054382;28;20643;-65
2023/05/09 07:55:14;;;;;;;25.20;22.23;;;;;;;;;;5036438;28;20179;-64
2023/05/09 07:57:40;;;;;;;25.87;21.87;;;;;;;;;;5036307;28;20260;-65
2023/05/09 08:00:06;;;;;;;26.73;23.93;;;;;;;;;;5053201;28;20413;-65
2023/05/09 08:02:33;;;;;;;26.60;23.80;;;;;;;;;;5036184;28;20512;-65
2023/05/09 08:04:58;;;;;;;25.17;22.43;;;;;;;;;;5054087;28;20179;-65
2023/05/09 08:07:24;;;;;;;26.20;22.13;;;;;;;;;;5054469;28;20207;-65
2023/05/09 08:09:50;;;;;;;24.73;22.27;;;;;;;;;;5036478;28;20182;-64
2023/05/09 08:12:16;;;;;;;24.43;20.83;;;;;;;;;;5054199;28;20185;-64
2023/05/09 08:14:42;;;;;;;23.03;20.50;;;;;;;;;;5054159;28;20257;-65
2023/05/09 08:17:09;;;;;;;25.03;22.43;;;;;;;;;;5054230;28;20178;-65
2023/05/09 08:19:35;;;;;;;24.42;21.98;;;;;;;;;;5035180;28;20397;-65
2023/05/09 08:22:01;;;;;;;24.02;21.52;;;;;;;;;;5052587;28;20794;-66
2023/05/09 08:24:27;;;;;;;21.10;18.97;;;;;;;;;;5035820;28;20536;-65
2023/05/09 08:26:53;;;;;;;20.77;18.17;;;;;;;;;;5035844;28;20555;-65
2023/05/09 08:29:19;;;;;;;18.57;16.67;;;;;;;;;;5053547;28;20178;-68
2023/05/09 08:31:45;;;;;;;17.87;16.03;;;;;;;;;;5053180;28;20560;-66
2023/05/09 08:34:11;;;;;;;17.60;15.73;;;;;;;;;;5035351;28;20189;-66
2023/05/09 08:36:36;;;;;;;16.20;14.37;;;;;;;;;;5035374;28;20187;-65
2023/05/09 08:39:02;;;;;;;16.90;15.17;;;;;;;;;;5035587;28;20217;-65
2023/05/09 08:41:29;;;;;;;20.20;13.80;;;;;;;;;;5053806;28;20710;-65
2023/05/09 08:43:56;;;;;;;13.37;12.07;;;;;;;;;;5053639;28;20228;-65
2023/05/09 08:46:27;;;;;;;11.97;10.77;;;;;;;;;;5035634;28;20236;-65
2023/05/09 08:48:55;;;;;;;12.03;10.80;;;;;;;;;;5053327;28;20316;-65
2023/05/09 08:51:21;;;;;;;11.83;9.73;;;;;;;;;;5053235;28;20202;-65
2023/05/09 08:53:47;;;;;;;10.23;9.23;;;;;;;;;;5053273;28;20189;-65
2023/05/09 08:56:13;;;;;;;13.90;9.57;;;;;;;;;;5054662;28;20178;-65
2023/05/09 08:58:40;;;;;;;12.03;9.73;;;;;;;;;;5039449;28;20300;-65
2023/05/09 09:01:06;;;;;;;11.10;9.87;;;;;;;;;;5039388;28;20290;-67
2023/05/09 09:03:32;;;;;;;11.93;8.83;;;;;;;;;;5039529;28;20178;-65
2023/05/09 09:05:58;;;;;;;10.03;9.03;;;;;;;;;;5056967;28;20178;-65
2023/05/09 09:08:25;;;;;;;10.40;8.13;;;;;;;;;;5039259;28;20639;-65
2023/05/09 09:10:52;;;;;;;9.83;8.93;;;;;;;;;;5056586;28;20611;-65
2023/05/09 09:13:18;;;;;;;7.97;7.23;;;;;;;;;;5057098;28;20639;-65
2023/05/09 09:15:45;;;;;;;10.87;8.23;;;;;;;;;;5057308;28;20183;-64
2023/05/09 09:18:15;;;;;;;9.50;7.93;;;;;;;;;;5056841;28;20262;-65
2023/05/09 09:20:47;;;;;;;9.87;8.03;;;;;;;;;;5056947;28;20332;-65
2023/05/09 09:23:17;;;;;;;11.03;8.07;;;;;;;;;;5038931;28;20612;-65
2023/05/09 09:25:45;;;;;;;11.67;8.93;;;;;;;;;;5057417;28;20181;-65
2023/05/09 09:28:11;;;;;;;8.63;7.83;;;;;;;;;;5038919;28;20339;-65
2023/05/09 09:30:43;;;;;;;8.90;7.13;;;;;;;;;;5057099;28;20198;-66
2023/05/09 09:33:09;;;;;;;10.30;7.20;;;;;;;;;;5057225;28;20171;-64
2023/05/09 09:35:39;;;;;;;8.93;6.83;;;;;;;;;;5038860;28;20186;-64
2023/05/09 09:38:06;;;;;;;11.17;6.93;;;;;;;;;;5038718;28;20234;-66
2023/05/09 09:40:32;;;;;;;7.10;6.13;;;;;;;;;;5056543;28;20698;-65
2023/05/09 09:42:58;;;;;;;8.07;6.20;;;;;;;;;;5038552;28;20182;-65
2023/05/09 09:45:23;;;;;;;8.43;6.03;;;;;;;;;;5056795;28;20170;-65
2023/05/09 09:47:49;;;;;;;9.77;6.47;;;;;;;;;;5038632;28;20662;-66
2023/05/09 09:50:16;;;;;;;7.53;6.70;;;;;;;;;;5038473;28;20198;-66
2023/05/09 09:52:50;;;;;;;9.37;6.50;;;;;;;;;;5057196;28;20183;-66
2023/05/09 09:55:16;;;;;;;6.83;5.47;;;;;;;;;;5060838;28;20174;-65
2023/05/09 09:57:46;;;;;;;10.77;7.37;;;;;;;;;;5056622;28;20213;-65
2023/05/09 10:00:14;;;;;;;8.00;6.27;;;;;;;;;;5038759;28;20202;-65
2023/05/09 10:02:50;;;;;;;8.63;6.53;;;;;;;;;;5057079;28;20174;-65
2023/05/09 10:05:37;;;;;;;6.93;5.67;;;;;;;;;;5057399;28;20257;-65
2023/05/09 10:08:06;;;;;;;10.07;5.50;;;;;;;;;;5055675;28;20186;-65
2023/05/09 10:10:33;;;;;;;7.83;6.40;;;;;;;;;;5056534;28;20217;-66
2023/05/09 10:13:02;;;;;;;8.67;5.67;;;;;;;;;;5056817;28;20525;-64
2023/05/09 10:15:30;;;;;;;10.37;6.17;;;;;;;;;;5039669;28;20656;-66
2023/05/09 10:17:57;;;;;;;6.57;5.50;;;;;;;;;;5038419;28;20207;-66
2023/05/09 10:20:24;;;;;;;8.77;5.63;;;;;;;;;;5055930;28;20679;-66
2023/05/09 10:22:50;;;;;;;9.03;5.60;;;;;;;;;;5056359;28;20224;-66
2023/05/09 10:25:16;;;;;;;12.40;5.20;;;;;;;;;;5037937;28;20187;-66
2023/05/09 10:27:44;;;;;;;7.60;6.13;;;;;;;;;;5056225;28;20175;-66
2023/05/09 10:30:10;;;;;;;5.17;4.67;;;;;;;;;;5057892;28;20198;-67
2023/05/09 10:32:50;;;;;;;6.50;3.63;;;;;;;;;;5057448;28;20297;-66
2023/05/09 10:35:17;;;;;;;7.23;5.03;;;;;;;;;;5037905;28;20193;-66
2023/05/09 10:37:44;;;;;;;7.27;4.07;;;;;;;;;;5055779;28;20236;-66
2023/05/09 10:40:14;;;;;;;6.43;4.00;;;;;;;;;;5037760;28;20225;-67
2023/05/09 10:42:40;;;;;;;;;;;;;;;;;;5038211;28;20051;-66
2023/05/09 10:45:06;;;;;;;;;;;;;;;;;;5055615;28;20042;-67
2023/05/09 10:47:32;;;;;;;;;;;;;;;;;;5055818;28;19905;-67
2023/05/09 10:49:58;;;;;;;8.45;5.03;;;;;;;;;;5036109;28;20383;-67
2023/05/09 10:52:24;;;;;;;8.67;4.90;;;;;;;;;;5055332;28;20170;-67
2023/05/09 10:55:03;;;;;;;7.30;5.20;;;;;;;;;;5055549;28;20660;-67
2023/05/09 10:57:30;;;;;;;8.43;4.70;;;;;;;;;;5055336;28;20170;-67
2023/05/09 10:59:56;;;;;;;8.97;4.90;;;;;;;;;;5037139;28;20174;-67
2023/05/09 11:02:28;;;;;;;7.70;5.40;;;;;;;;;;5037325;28;20257;-67
2023/05/09 11:05:13;;;;;;;9.30;5.37;;;;;;;;;;5037367;28;20173;-68
2023/05/09 11:07:39;;;;;;;10.30;5.20;;;;;;;;;;5055231;28;20198;-67
2023/05/09 11:10:09;;;;;;;10.10;5.40;;;;;;;;;;5055194;28;20182;-67
2023/05/09 11:12:52;;;;;;;9.37;6.17;;;;;;;;;;5055426;28;20158;-65
2023/05/09 11:15:18;;;;;;;6.43;4.60;;;;;;;;;;5055157;28;20238;-68
2023/05/09 11:17:44;;;;;;;9.13;5.30;;;;;;;;;;5036859;28;20314;-67
2023/05/09 11:20:10;;;;;;;6.67;5.53;;;;;;;;;;5037187;28;20199;-67
2023/05/09 11:22:40;;;;;;;6.67;4.90;;;;;;;;;;5037014;28;20178;-66
2023/05/09 11:25:06;;;;;;;7.60;5.43;;;;;;;;;;5036930;28;20600;-67
2023/05/09 11:27:43;;;;;;;7.73;4.70;;;;;;;;;;5036744;28;20736;-67
2023/05/09 11:30:10;;;;;;;5.90;5.20;;;;;;;;;;5036508;28;20722;-66
2023/05/09 11:32:46;;;;;;;12.17;5.33;;;;;;;;;;5054812;28;20185;-67
2023/05/09 11:35:16;;;;;;;6.47;4.70;;;;;;;;;;5054664;28;20174;-67
2023/05/09 11:37:46;;;;;;;5.80;4.63;;;;;;;;;;5054282;28;20624;-67
2023/05/09 11:40:13;;;;;;;5.13;4.23;;;;;;;;;;5036647;28;20705;-66
2023/05/09 11:42:43;;;;;;;5.03;4.13;;;;;;;;;;5036530;28;20178;-66
2023/05/09 11:45:10;;;;;;;7.93;4.00;;;;;;;;;;5054335;28;20258;-66
2023/05/09 11:47:37;;;;;;;5.40;3.67;;;;;;;;;;5036338;28;20178;-66
2023/05/09 11:50:04;;;;;;;5.88;4.20;;;;;;;;;;5053459;28;20388;-67
2023/05/09 11:52:32;;;;;;;4.67;4.27;;;;;;;;;;5054734;28;20254;-67
2023/05/09 11:54:58;;;;;;;5.20;4.40;;;;;;;;;;5053078;28;20378;-68
2023/05/09 11:57:24;;;;;;;5.78;5.13;;;;;;;;;;5053131;28;20448;-67
2023/05/09 11:59:50;;;;;;;12.23;5.70;;;;;;;;;;5054089;28;20175;-66
2023/05/09 12:02:16;;;;;;;9.03;5.40;;;;;;;;;;5035212;28;20404;-67
2023/05/09 12:04:42;;;;;;;4.70;4.30;;;;;;;;;;5054300;28;20381;-67
2023/05/09 12:07:10;;;;;;;4.80;4.27;;;;;;;;;;5055483;28;20632;-67
2023/05/09 12:09:37;;;;;;;5.53;3.90;;;;;;;;;;5054562;28;20185;-67
2023/05/09 12:12:13;;;;;;;6.97;5.47;;;;;;;;;;5036123;28;20210;-67
2023/05/09 12:14:39;;;;;;;8.47;6.60;;;;;;;;;;5054057;28;20158;-68
2023/05/09 12:17:08;;;;;;;8.03;6.67;;;;;;;;;;5054138;28;20530;-67
2023/05/09 12:19:34;;;;;;;9.13;7.40;;;;;;;;;;5053842;28;20705;-66
2023/05/09 12:22:02;;;;;;;9.90;6.27;;;;;;;;;;5054077;28;20201;-67
2023/05/09 12:24:29;;;;;;;8.00;7.20;;;;;;;;;;5054056;28;20213;-68
2023/05/09 12:26:55;;;;;;;7.50;6.67;;;;;;;;;;5035405;28;20668;-66
2023/05/09 12:29:22;;;;;;;8.97;8.07;;;;;;;;;;5053339;28;20201;-67
2023/05/09 12:31:48;;;;;;;9.60;8.20;;;;;;;;;;5052886;28;20198;-66
2023/05/09 12:34:15;;;;;;;10.20;8.30;;;;;;;;;;5053666;28;20193;-66
2023/05/09 12:36:49;;;;;;;9.13;7.37;;;;;;;;;;5035425;28;20174;-67
2023/05/09 12:39:15;;;;;;;10.67;8.20;;;;;;;;;;5035203;28;20289;-66
2023/05/09 12:41:45;;;;;;;12.50;7.87;;;;;;;;;;5035320;28;20209;-65
2023/05/09 12:44:17;;;;;;;9.37;8.27;;;;;;;;;;5035604;28;20185;-65
2023/05/09 12:46:52;;;;;;;10.13;7.97;;;;;;;;;;5053521;28;20642;-67
2023/05/09 12:49:22;;;;;;;10.80;7.37;;;;;;;;;;5035362;28;20169;-66
2023/05/09 12:51:49;;;;;;;10.40;7.90;;;;;;;;;;5035383;28;20202;-66
2023/05/09 12:54:19;;;;;;;8.88;7.90;;;;;;;;;;5034073;28;20386;-66
2023/05/09 12:56:46;;;;;;;10.57;8.40;;;;;;;;;;5052441;28;20400;-66
2023/05/09 12:59:14;;;;;;;11.63;9.47;;;;;;;;;;5053224;28;20202;-65
2023/05/09 13:01:40;;;;;;;13.00;10.43;;;;;;;;;;5035083;28;20205;-66
2023/05/09 13:04:06;;;;;;;15.10;12.20;;;;;;;;;;5053353;28;20174;-65
2023/05/09 13:06:33;;;;;;;18.83;13.87;;;;;;;;;;5053413;28;20171;-66
2023/05/09 13:09:01;;;;;;;23.23;16.30;;;;;;;;;;5035342;28;20269;-67
2023/05/09 13:11:27;;;;;;;24.23;17.97;;;;;;;;;;5053336;28;20273;-67
2023/05/09 13:13:56;;;;;;;18.23;16.20;;;;;;;;;;5035594;28;20187;-68
2023/05/09 13:16:22;;;;;;;20.90;16.73;;;;;;;;;;5035703;28;20218;-69
2023/05/09 13:18:48;;;;;;;23.87;19.00;;;;;;;;;;5053476;28;20702;-69
2023/05/09 13:21:15;;;;;;;22.70;19.57;;;;;;;;;;5053574;28;20195;-67
2023/05/09 13:23:41;;;;;;;20.97;18.87;;;;;;;;;;5036061;28;20618;-67
2023/05/09 13:26:07;;;;;;;22.97;19.43;;;;;;;;;;5053017;28;20174;-66
2023/05/09 13:28:33;;;;;;;23.70;20.23;;;;;;;;;;5052839;28;20210;-69
2023/05/09 13:31:00;;;;;;;23.43;21.03;;;;;;;;;;5035050;28;20659;-67
2023/05/09 13:33:26;;;;;;;24.07;20.03;;;;;;;;;;5053004;28;20175;-67
2023/05/09 13:35:52;;;;;;;21.67;19.37;;;;;;;;;;5053305;28;20167;-67
2023/05/09 13:38:18;;;;;;;27.03;20.10;;;;;;;;;;5035076;28;20268;-68
2023/05/09 13:40:44;;;;;;;20.53;18.43;;;;;;;;;;5035309;28;20620;-70
2023/05/09 13:43:10;;;;;;;19.67;17.87;;;;;;;;;;5053624;28;20230;-67
2023/05/09 13:45:36;;;;;;;21.27;17.87;;;;;;;;;;5038818;28;20182;-66
2023/05/09 13:48:02;;;;;;;20.43;18.33;;;;;;;;;;5056999;28;20208;-66
2023/05/09 13:50:28;;;;;;;21.43;17.80;;;;;;;;;;5056767;28;20198;-69
2023/05/09 13:52:54;;;;;;;19.73;17.63;;;;;;;;;;5038823;28;20667;-66
2023/05/09 13:55:20;;;;;;;18.50;16.60;;;;;;;;;;5038688;28;20196;-66
2023/05/09 13:57:46;;;;;;;18.73;16.13;;;;;;;;;;5056449;28;20221;-71
2023/05/09 14:00:12;;;;;;;18.20;16.40;;;;;;;;;;5056293;28;20186;-66
2023/05/09 14:02:38;;;;;;;17.83;16.03;;;;;;;;;;5038300;28;20268;-68
2023/05/09 14:05:04;;;;;;;17.80;16.10;;;;;;;;;;5038598;28;20218;-68
2023/05/09 14:07:30;;;;;;;17.60;15.90;;;;;;;;;;5056201;28;20183;-67
2023/05/09 14:09:57;;;;;;;16.13;14.43;;;;;;;;;;5038114;28;20197;-67
2023/05/09 14:12:23;;;;;;;16.73;14.90;;;;;;;;;;5056040;28;20247;-68
2023/05/09 14:14:49;;;;;;;16.77;14.60;;;;;;;;;;5038354;28;20184;-68
2023/05/09 14:17:15;;;;;;;17.50;15.77;;;;;;;;;;5057136;28;20174;-67
2023/05/09 14:19:41;;;;;;;17.23;15.63;;;;;;;;;;5055826;28;20213;-69
2023/05/09 14:22:07;;;;;;;17.23;15.43;;;;;;;;;;5056091;28;20195;-71